Impacts TAF Board
For situational awareness. Not to be used for flight planning purposes.
IDs:

KLBX - Angleton/Texas Gulf, TX, US

Issued at 1135 UTC 14 Dec 2019
Updated at 1330 UTC 14 Dec 2019
Potential Impact None Slight Moderate High
Time1253Z 14/14Z 14/15Z 14/16Z 14/17Z 14/18Z 14/19Z 14/20Z 14/21Z 14/22Z 14/23Z 15/00Z 15/01Z 15/02Z>>
Type OBS PRVL PRVL PRVL PRVL PRVL PRVL PRVL PRVL PRVL PRVL PRVL PRVL PRVL
VIS 9 >6 >6 >6 >6 >6 >6 >6 >6 >6 >6 >6 >6 >6
CIG -- -- -- -- -- -- -- -- -- -- -- -- -- --
Cover CLR SKC SKC SKC SKC SKC SKC SKC SKC SKC SKC SKC SKC SKC
FltCat VFR VFR VFR VFR VFR VFR VFR VFR VFR VFR VFR VFR VFR VFR
WX -- -- -- -- -- -- -- -- -- -- -- -- -- --
WDir 20 VRB 120 120 120 120 120 120 120 150 150 150 150 150
WSpd 3 0 5 5 5 5 5 5 5 7 7 7 7 7
WGst -- -- -- -- -- -- -- -- -- -- -- -- -- --
Raw TAF
KLBX 141135Z 1412/1512 00000KT P6SM SKC
  TEMPO 1412/1413 2SM BR
  FM141500 12005KT P6SM SKC
  FM142200 15007KT P6SM SKC
  FM150400 18007KT P6SM MIFG SCT015
  FM150800 18008KT 3SM BR SCT008 BKN012


Raw METAR
KLBX 141253Z AUTO 02003KT 9SM CLR 08/07 A2987 RMK AO2 SLP115 T00780072
KLBX 141153Z AUTO 00000KT 7SM CLR 08/07 A2987 RMK AO2 SLP113 T00780072 10111 20078 53001
KLBX 141053Z AUTO 00000KT 8SM CLR 09/08 A2985 RMK AO2 SLP108 T00890083

METAR Board
Radar Display
Forecast Discussion
For situational awareness. Not to be used for flight planning purposes.